Terminal Aerodrome Forecast
Issued by NWS

Home | Current Version | Previous Version | Text Only | Print | Product List | Glossary On
Versions: 1 2 3 4 5 6 7 8 9 10 11 12 13 14
000
FTUS42 KTBW 281120
TAFPIE
TAF
KPIE 281120Z 2812/2912 08006KT P6SM FEW040
     FM281900 02006KT P6SM SCT040 BKN060
     FM282200 31008KT P6SM FEW050 SCT120
     FM290400 06007KT P6SM BKN050 BKN100=

USA.gov is the U.S. government's official web portal to all federal, state and local government web resources and services.